Time;durP1;ratioP1;P1;durP2;ratioP2;P2;SDS_P1;SDS_P2;PMS_P1;PMS_P2;Temp;Humidity;BMP_temperature;BMP_pressure;BME280_temperature;BME280_humidity;BME280_pressure;Samples;Min_cycle;Max_cycle;Signal;HPM_P1;HPM_P2
2023/10/23 00:01:36;;;;;;;18.42;9.68;;;15.20;99.90;;;;;;5136114;27;20055;-81
2023/10/23 00:04:02;;;;;;;17.50;9.75;;;15.20;99.90;;;;;;5118435;27;20027;-82
2023/10/23 00:06:28;;;;;;;20.55;10.10;;;15.20;99.90;;;;;;5118037;27;20026;-81
2023/10/23 00:08:53;;;;;;;21.90;11.00;;;15.20;99.90;;;;;;5136493;27;20027;-81
2023/10/23 00:11:27;;;;;;;25.50;12.88;;;15.20;99.90;;;;;;5136575;27;20076;-81
2023/10/23 00:13:54;;;;;;;24.17;14.07;;;15.10;99.90;;;;;;5118369;27;20473;-81
2023/10/23 00:16:20;;;;;;;23.90;12.85;;;15.10;99.90;;;;;;5117729;27;20046;-80
2023/10/23 00:18:46;;;;;;;34.22;13.50;;;15.10;99.90;;;;;;5118149;27;20406;-81
2023/10/23 00:21:13;;;;;;;27.92;14.25;;;15.00;99.90;;;;;;5135868;27;20061;-80
2023/10/23 00:23:38;;;;;;;26.35;13.27;;;14.90;99.90;;;;;;5136362;27;20027;-80
2023/10/23 00:26:07;;;;;;;31.77;14.88;;;14.90;99.90;;;;;;5135950;27;20075;-80
2023/10/23 00:28:35;;;;;;;25.75;13.82;;;14.90;99.90;;;;;;5117058;27;20022;-80
2023/10/23 00:31:01;;;;;;;25.50;14.05;;;14.80;99.90;;;;;;5117526;27;20030;-80
2023/10/23 00:33:27;;;;;;;28.88;15.02;;;14.80;99.90;;;;;;5117670;27;20023;-80
2023/10/23 00:35:54;;;;;;;33.20;14.65;;;14.80;99.90;;;;;;5117066;27;20023;-80
2023/10/23 00:38:20;;;;;;;26.70;14.88;;;14.80;99.90;;;;;;5135477;27;20038;-80
2023/10/23 00:40:46;;;;;;;25.17;14.18;;;14.80;99.90;;;;;;5117340;27;20342;-80
2023/10/23 00:43:19;;;;;;;30.98;14.52;;;14.80;99.90;;;;;;5134874;27;20027;-80
2023/10/23 00:46:14;;;;;;;31.38;15.50;;;14.80;99.90;;;;;;5116623;27;20015;-80
2023/10/23 00:48:40;;;;;;;34.88;17.27;;;14.70;99.90;;;;;;5117085;27;20068;-80
2023/10/23 00:51:06;;;;;;;30.02;16.67;;;14.70;99.90;;;;;;5116620;27;20023;-80
2023/10/23 00:53:36;;;;;;;34.08;16.17;;;14.80;99.90;;;;;;5116894;27;20023;-80
2023/10/23 00:56:04;;;;;;;34.78;17.63;;;14.70;99.90;;;;;;5135076;27;20079;-80
2023/10/23 00:58:37;;;;;;;32.45;16.90;;;14.70;99.90;;;;;;5135083;27;20034;-80
2023/10/23 01:01:04;;;;;;;33.50;16.80;;;14.70;99.90;;;;;;5116513;27;20122;-80
2023/10/23 01:03:30;;;;;;;30.70;15.77;;;14.70;99.90;;;;;;5133734;27;20061;-81
2023/10/23 01:05:56;;;;;;;32.75;15.57;;;14.70;99.90;;;;;;5117360;27;20149;-81
2023/10/23 01:08:22;;;;;;;34.22;16.73;;;14.70;99.90;;;;;;5135258;27;20102;-81
2023/10/23 01:10:48;;;;;;;28.33;15.88;;;14.70;99.90;;;;;;5116746;27;20449;-81
2023/10/23 01:13:14;;;;;;;30.45;16.35;;;14.60;99.90;;;;;;5135164;27;20027;-81
2023/10/23 01:15:40;;;;;;;30.52;16.27;;;14.60;99.90;;;;;;5135538;27;20465;-81
2023/10/23 01:18:06;;;;;;;28.58;15.38;;;14.60;99.90;;;;;;5134818;27;20138;-79
2023/10/23 01:20:32;;;;;;;28.48;16.05;;;14.70;99.90;;;;;;5134977;27;20030;-79
2023/10/23 01:22:59;;;;;;;28.85;16.10;;;14.60;99.90;;;;;;5116999;27;20023;-79
2023/10/23 01:25:25;;;;;;;26.38;15.65;;;14.60;99.90;;;;;;5116694;27;20461;-79
2023/10/23 01:27:51;;;;;;;26.73;14.90;;;14.60;99.90;;;;;;5135322;27;20027;-79
2023/10/23 01:30:17;;;;;;;24.48;15.55;;;14.60;99.90;;;;;;5135407;27;20076;-79
2023/10/23 01:32:43;;;;;;;28.77;15.23;;;14.50;99.90;;;;;;5133914;27;20475;-79
2023/10/23 01:35:12;;;;;;;31.65;14.82;;;14.50;99.90;;;;;;5116235;27;20023;-79
2023/10/23 01:37:41;;;;;;;30.17;15.23;;;14.50;99.90;;;;;;5116017;27;20023;-79
2023/10/23 01:40:08;;;;;;;26.52;14.30;;;14.50;99.90;;;;;;5115784;27;20038;-79
2023/10/23 01:42:34;;;;;;;29.60;16.13;;;14.50;99.90;;;;;;5134128;27;20057;-79
2023/10/23 01:45:00;;;;;;;37.75;15.80;;;14.50;99.90;;;;;;5134530;27;20035;-80
2023/10/23 01:47:26;;;;;;;35.83;16.55;;;14.50;99.90;;;;;;5115659;27;20023;-81
2023/10/23 01:49:52;;;;;;;31.35;15.57;;;14.50;99.90;;;;;;5116057;27;20027;-81
2023/10/23 01:52:19;;;;;;;27.95;15.20;;;14.40;99.90;;;;;;5133980;27;20028;-81
2023/10/23 01:54:44;;;;;;;24.75;14.45;;;14.50;99.90;;;;;;5116132;27;20019;-81
2023/10/23 01:57:11;;;;;;;34.53;14.52;;;14.40;99.90;;;;;;5134068;27;20027;-81
2023/10/23 01:59:37;;;;;;;30.42;15.38;;;14.40;99.90;;;;;;5134358;27;20027;-81
2023/10/23 02:02:04;;;;;;;30.58;14.90;;;14.50;99.90;;;;;;5134500;27;20466;-81
2023/10/23 02:04:30;;;;;;;32.70;13.85;;;14.40;99.90;;;;;;5116111;28;20027;-81
2023/10/23 02:06:56;;;;;;;31.50;13.30;;;14.40;99.90;;;;;;5114008;28;20102;-81
2023/10/23 02:09:22;;;;;;;29.30;14.20;;;14.30;99.90;;;;;;5134810;28;20019;-81
2023/10/23 02:11:48;;;;;;;30.45;14.93;;;14.30;99.90;;;;;;5134474;28;20066;-81
2023/10/23 02:14:14;;;;;;;28.25;14.45;;;14.20;99.90;;;;;;5134377;28;20050;-81
2023/10/23 02:16:40;;;;;;;26.80;13.38;;;14.20;99.90;;;;;;5134169;28;20035;-81
2023/10/23 02:19:06;;;;;;;25.75;12.82;;;14.20;99.90;;;;;;5134263;28;20038;-81
2023/10/23 02:21:32;;;;;;;26.85;12.77;;;14.20;99.90;;;;;;5133523;28;20034;-81
2023/10/23 02:23:58;;;;;;;27.65;13.25;;;14.10;99.90;;;;;;5115882;28;20027;-81
2023/10/23 02:26:25;;;;;;;24.15;11.45;;;14.20;99.90;;;;;;5134362;28;20051;-81
2023/10/23 02:28:50;;;;;;;24.15;12.18;;;14.10;99.90;;;;;;5115366;28;20019;-81
2023/10/23 02:31:17;;;;;;;26.27;12.02;;;14.10;99.90;;;;;;5133776;28;20019;-81
2023/10/23 02:33:43;;;;;;;26.70;12.30;;;14.10;99.90;;;;;;5134143;28;20509;-81
2023/10/23 02:36:09;;;;;;;22.73;12.65;;;14.10;99.90;;;;;;5133274;28;20023;-81
2023/10/23 02:38:34;;;;;;;24.30;11.90;;;14.10;99.90;;;;;;5133277;28;20090;-81
2023/10/23 02:41:00;;;;;;;22.10;11.52;;;14.20;99.90;;;;;;5133717;28;20355;-82
2023/10/23 02:43:26;;;;;;;24.30;11.90;;;14.20;99.90;;;;;;5135148;27;20105;-81
2023/10/23 02:45:52;;;;;;;20.80;10.30;;;14.10;99.90;;;;;;5137905;27;20019;-81
2023/10/23 02:48:18;;;;;;;29.70;11.63;;;14.00;99.90;;;;;;5118990;27;20023;-81
2023/10/23 02:50:57;;;;;;;21.83;11.02;;;14.00;99.90;;;;;;5119474;27;20030;-81
2023/10/23 02:53:23;;;;;;;21.40;11.35;;;14.00;99.90;;;;;;5137814;27;20024;-81
2023/10/23 02:55:49;;;;;;;19.85;10.57;;;13.90;99.90;;;;;;5118725;27;20069;-81
2023/10/23 02:58:16;;;;;;;25.25;13.15;;;13.90;99.90;;;;;;5137707;27;20051;-81
2023/10/23 03:00:42;;;;;;;24.67;11.60;;;13.90;99.90;;;;;;5136847;27;20027;-81
2023/10/23 03:03:11;;;;;;;19.70;10.25;;;13.90;99.90;;;;;;5137795;27;20333;-81
2023/10/23 03:05:38;;;;;;;19.00;11.50;;;13.90;99.90;;;;;;5138128;27;20079;-81
2023/10/23 03:08:04;;;;;;;29.63;13.20;;;13.80;99.90;;;;;;5119542;27;20110;-81
2023/10/23 03:10:31;;;;;;;30.00;12.32;;;13.90;99.90;;;;;;5137656;27;20402;-81
2023/10/23 03:12:57;;;;;;;25.75;11.95;;;13.80;99.90;;;;;;5119428;27;20414;-81
2023/10/23 03:15:23;;;;;;;23.05;11.48;;;13.90;99.90;;;;;;5119413;27;20019;-82
2023/10/23 03:17:49;;;;;;;35.50;11.93;;;13.80;99.90;;;;;;5137671;27;20410;-82
2023/10/23 03:20:15;;;;;;;29.02;13.40;;;13.80;99.90;;;;;;5119387;27;20361;-81
2023/10/23 03:22:41;;;;;;;24.95;12.30;;;13.70;99.90;;;;;;5137703;27;20027;-82
2023/10/23 03:25:08;;;;;;;25.20;13.02;;;13.70;99.90;;;;;;5137373;27;20410;-81
2023/10/23 03:27:35;;;;;;;27.05;12.27;;;13.70;99.90;;;;;;5119339;27;20026;-81
2023/10/23 03:30:01;;;;;;;30.52;12.23;;;13.70;99.90;;;;;;5137286;27;20097;-81
2023/10/23 03:32:26;;;;;;;25.58;12.40;;;13.70;99.90;;;;;;5137134;27;20020;-81
2023/10/23 03:34:52;;;;;;;22.00;11.18;;;13.70;99.90;;;;;;5136970;27;20026;-81
2023/10/23 03:37:18;;;;;;;25.40;12.07;;;13.70;99.90;;;;;;5136631;27;20094;-81
2023/10/23 03:39:44;;;;;;;26.20;12.57;;;13.70;99.90;;;;;;5118437;27;20022;-81
2023/10/23 03:42:09;;;;;;;26.95;12.10;;;13.60;99.90;;;;;;5118185;27;20119;-81
2023/10/23 03:44:38;;;;;;;23.67;11.80;;;13.70;99.90;;;;;;5118072;27;20361;-80
2023/10/23 03:47:04;;;;;;;23.20;12.85;;;13.70;99.90;;;;;;5136555;27;20023;-81
2023/10/23 03:49:30;;;;;;;24.20;12.88;;;13.70;99.90;;;;;;5136528;27;20449;-81
2023/10/23 03:51:56;;;;;;;26.48;13.68;;;13.60;99.90;;;;;;5116693;27;20027;-79
2023/10/23 03:54:22;;;;;;;34.45;22.63;;;13.60;99.90;;;;;;5117703;27;20346;-79
2023/10/23 03:56:48;;;;;;;30.80;12.98;;;13.60;99.90;;;;;;5131439;27;20030;-79
2023/10/23 03:59:14;;;;;;;35.72;18.40;;;13.60;99.90;;;;;;5136035;27;20072;-79
2023/10/23 04:01:39;;;;;;;21.90;13.52;;;13.60;99.90;;;;;;5136302;27;20086;-79
2023/10/23 04:04:06;;;;;;;26.65;13.90;;;13.50;99.90;;;;;;5134496;27;20122;-79
2023/10/23 04:06:32;;;;;;;28.05;14.02;;;13.50;99.90;;;;;;5135490;27;20035;-79
2023/10/23 04:08:58;;;;;;;30.85;13.88;;;13.50;99.90;;;;;;5136290;27;20034;-79
2023/10/23 04:11:25;;;;;;;37.72;19.65;;;13.40;99.90;;;;;;5135990;27;20031;-79
2023/10/23 04:13:50;;;;;;;36.92;17.45;;;13.40;99.90;;;;;;5117584;27;20513;-78
2023/10/23 04:16:16;;;;;;;35.55;16.13;;;13.40;99.90;;;;;;5136182;27;20098;-79
2023/10/23 04:18:43;;;;;;;34.20;15.23;;;13.40;99.90;;;;;;5136127;27;20103;-79
2023/10/23 04:21:09;;;;;;;30.95;14.15;;;13.40;99.90;;;;;;5135407;27;20338;-79
2023/10/23 04:23:37;;;;;;;27.98;14.90;;;13.40;99.90;;;;;;5117710;27;20026;-79
2023/10/23 04:26:03;;;;;;;33.35;14.45;;;13.40;99.90;;;;;;5136219;27;20030;-79
2023/10/23 04:28:30;;;;;;;34.00;16.00;;;13.40;99.90;;;;;;5135498;27;20024;-79
2023/10/23 04:30:57;;;;;;;42.72;14.40;;;13.40;99.90;;;;;;5135140;27;20034;-79
2023/10/23 04:33:23;;;;;;;29.15;13.85;;;13.40;99.90;;;;;;5135595;27;20023;-79
2023/10/23 04:35:53;;;;;;;33.50;13.60;;;13.30;99.90;;;;;;5135636;27;20022;-79
2023/10/23 04:38:19;;;;;;;29.55;14.35;;;13.30;99.90;;;;;;5135292;27;20024;-79
2023/10/23 04:40:45;;;;;;;62.58;30.45;;;13.40;99.90;;;;;;5135014;27;20030;-78
2023/10/23 04:43:12;;;;;;;49.35;24.77;;;13.30;99.90;;;;;;5135235;27;20034;-79
2023/10/23 04:45:38;;;;;;;73.55;36.80;;;13.20;99.90;;;;;;5135308;27;20101;-79
2023/10/23 04:48:05;;;;;;;64.93;31.50;;;13.20;99.90;;;;;;5135040;27;20092;-79
2023/10/23 04:50:32;;;;;;;69.72;30.55;;;13.20;99.90;;;;;;5135179;27;20019;-79
2023/10/23 04:52:59;;;;;;;64.45;29.52;;;13.20;99.90;;;;;;5134293;27;20473;-79
2023/10/23 04:55:25;;;;;;;36.15;19.88;;;13.20;99.90;;;;;;5116500;27;20022;-79
2023/10/23 04:57:51;;;;;;;29.20;13.32;;;13.20;99.90;;;;;;5135040;27;20019;-79
2023/10/23 05:00:19;;;;;;;21.17;10.95;;;13.20;99.90;;;;;;5135348;27;20034;-79
2023/10/23 05:02:47;;;;;;;20.42;10.93;;;13.20;99.90;;;;;;5116133;27;20042;-79
2023/10/23 05:05:13;;;;;;;26.52;11.05;;;13.20;99.90;;;;;;5116878;27;20449;-79
2023/10/23 05:07:39;;;;;;;23.60;10.32;;;13.20;99.90;;;;;;5116821;27;20034;-79
2023/10/23 05:10:11;;;;;;;19.73;10.60;;;13.20;99.90;;;;;;5135367;27;20063;-79
2023/10/23 05:12:38;;;;;;;22.20;10.65;;;13.20;99.90;;;;;;5135285;27;20358;-79
2023/10/23 05:15:05;;;;;;;24.75;10.50;;;13.20;99.90;;;;;;5135568;27;20037;-79
2023/10/23 05:17:31;;;;;;;18.90;10.18;;;13.20;99.90;;;;;;5116668;27;20027;-79
2023/10/23 05:19:57;;;;;;;19.65;9.60;;;13.10;99.90;;;;;;5135106;27;20365;-78
2023/10/23 05:22:23;;;;;;;24.50;9.48;;;13.20;99.90;;;;;;5117006;27;20486;-79
2023/10/23 05:24:49;;;;;;;21.10;9.65;;;13.10;99.90;;;;;;5135390;27;20214;-79
2023/10/23 05:27:17;;;;;;;18.83;9.40;;;13.20;99.90;;;;;;5135299;27;20042;-79
2023/10/23 05:29:43;;;;;;;22.75;10.05;;;13.10;99.90;;;;;;5116817;27;20096;-79
2023/10/23 05:32:08;;;;;;;24.60;9.43;;;13.10;99.90;;;;;;5116761;27;20402;-78
2023/10/23 05:34:34;;;;;;;18.70;9.40;;;13.10;99.90;;;;;;5135277;27;20054;-79
2023/10/23 05:37:00;;;;;;;17.25;9.45;;;13.10;99.90;;;;;;5134521;27;20035;-79
2023/10/23 05:39:27;;;;;;;22.88;9.23;;;13.10;99.90;;;;;;5134587;27;20027;-79
2023/10/23 05:41:53;;;;;;;19.10;8.80;;;13.20;99.90;;;;;;5134365;27;20114;-79
2023/10/23 05:44:18;;;;;;;23.10;9.05;;;13.20;99.90;;;;;;5134646;27;20063;-78
2023/10/23 05:46:44;;;;;;;21.15;8.50;;;13.20;99.90;;;;;;5134045;27;20473;-78
2023/10/23 05:49:10;;;;;;;23.48;9.45;;;13.20;99.90;;;;;;5134085;27;20055;-79
2023/10/23 05:51:36;;;;;;;30.95;9.90;;;13.10;99.90;;;;;;5134224;27;20031;-79
2023/10/23 05:54:05;;;;;;;25.85;11.18;;;13.20;99.90;;;;;;5115533;27;20095;-78
2023/10/23 05:56:31;;;;;;;23.23;9.70;;;13.20;99.90;;;;;;5133994;27;20011;-79
2023/10/23 05:58:56;;;;;;;18.40;9.43;;;13.30;99.90;;;;;;5134368;27;20027;-79
2023/10/23 06:01:22;;;;;;;22.08;10.68;;;13.30;99.90;;;;;;5133569;27;20039;-79
2023/10/23 06:03:48;;;;;;;25.63;13.52;;;13.30;99.90;;;;;;5115825;28;20124;-79
2023/10/23 06:06:14;;;;;;;29.35;13.95;;;13.40;99.90;;;;;;5115664;28;20027;-79
2023/10/23 06:08:40;;;;;;;32.67;14.88;;;13.40;99.90;;;;;;5133639;28;20022;-79
2023/10/23 06:11:13;;;;;;;34.55;17.00;;;13.50;99.90;;;;;;5115697;28;20023;-79
2023/10/23 06:13:39;;;;;;;34.03;15.15;;;13.60;99.90;;;;;;5115670;28;20011;-79
2023/10/23 06:16:07;;;;;;;34.97;14.57;;;13.70;99.90;;;;;;5133584;28;20024;-79
2023/10/23 06:18:34;;;;;;;23.27;11.88;;;13.70;99.90;;;;;;5119274;27;20031;-79
2023/10/23 06:21:03;;;;;;;19.50;11.35;;;13.80;99.90;;;;;;5138535;27;20431;-79
2023/10/23 06:23:39;;;;;;;27.98;11.60;;;13.80;99.90;;;;;;5138069;27;20030;-78
2023/10/23 06:26:06;;;;;;;26.20;11.85;;;14.00;99.90;;;;;;5137647;27;20039;-78
2023/10/23 06:28:33;;;;;;;23.20;11.70;;;14.00;99.90;;;;;;5138399;27;20019;-78
2023/10/23 06:31:06;;;;;;;17.25;10.70;;;14.10;99.90;;;;;;5137467;27;20023;-77
2023/10/23 06:33:32;;;;;;;20.02;10.32;;;14.20;99.90;;;;;;5119607;27;20030;-77
2023/10/23 06:35:59;;;;;;;14.80;9.90;;;14.30;99.90;;;;;;5137862;27;20027;-78
2023/10/23 06:38:25;;;;;;;16.77;9.40;;;14.40;99.90;;;;;;5138005;27;20035;-77
2023/10/23 06:40:51;;;;;;;19.40;10.20;;;14.40;99.90;;;;;;5118920;27;20023;-77
2023/10/23 06:43:17;;;;;;;18.67;10.27;;;14.50;99.90;;;;;;5119193;27;20034;-78
2023/10/23 06:45:43;;;;;;;18.27;9.68;;;14.60;99.90;;;;;;5119328;27;20394;-77
2023/10/23 06:48:09;;;;;;;13.50;9.85;;;14.70;99.90;;;;;;5138358;27;20102;-78
2023/10/23 06:50:35;;;;;;;19.88;10.18;;;14.80;99.90;;;;;;5137974;27;20102;-77
2023/10/23 06:53:00;;;;;;;20.27;9.90;;;14.80;99.90;;;;;;5138007;27;20027;-77
2023/10/23 06:55:29;;;;;;;19.33;10.27;;;14.90;99.90;;;;;;5138076;27;20023;-77
2023/10/23 06:57:55;;;;;;;16.42;10.15;;;15.00;99.90;;;;;;5119418;27;20030;-77
2023/10/23 07:00:21;;;;;;;17.27;10.05;;;15.10;99.90;;;;;;5138239;27;20027;-78
2023/10/23 07:02:50;;;;;;;17.73;9.85;;;15.20;99.90;;;;;;5136296;27;20411;-77
2023/10/23 07:05:16;;;;;;;20.38;10.82;;;15.30;99.90;;;;;;5133059;27;20027;-77
2023/10/23 07:07:42;;;;;;;20.55;10.35;;;15.40;99.90;;;;;;5138201;27;20019;-78
2023/10/23 07:10:09;;;;;;;19.02;11.07;;;15.50;99.90;;;;;;5136855;27;20038;-78
2023/10/23 07:12:35;;;;;;;27.85;11.50;;;15.60;99.90;;;;;;5137049;27;20046;-78
2023/10/23 07:15:02;;;;;;;22.40;11.10;;;15.70;99.90;;;;;;5119240;27;20107;-78
2023/10/23 07:17:29;;;;;;;23.48;11.45;;;15.80;99.90;;;;;;5138105;27;20501;-80
2023/10/23 07:19:55;;;;;;;22.10;11.30;;;15.90;99.90;;;;;;5137019;27;20023;-80
2023/10/23 07:22:21;;;;;;;24.67;12.68;;;16.10;99.90;;;;;;5134244;27;20425;-79
2023/10/23 07:24:47;;;;;;;27.48;15.20;;;16.10;99.90;;;;;;5118728;27;20023;-80
2023/10/23 07:27:15;;;;;;;29.60;16.40;;;16.20;99.90;;;;;;5136535;27;20428;-80
2023/10/23 07:29:42;;;;;;;42.85;23.15;;;16.30;99.90;;;;;;5136750;27;20142;-80
2023/10/23 07:32:08;;;;;;;43.00;24.17;;;16.40;99.90;;;;;;5117855;27;20027;-80
2023/10/23 07:34:34;;;;;;;43.38;24.10;;;16.40;99.90;;;;;;5136923;27;20076;-79
2023/10/23 07:37:00;;;;;;;35.80;20.92;;;16.50;99.90;;;;;;5136718;27;20079;-79
2023/10/23 07:39:26;;;;;;;36.25;20.10;;;;;;;;;;5118761;27;20019;-79
2023/10/23 07:41:52;;;;;;;52.38;29.52;;;16.70;99.90;;;;;;5137032;27;20145;-79
2023/10/23 07:44:17;;;;;;;46.80;23.23;;;16.80;99.90;;;;;;5137015;27;20066;-80
2023/10/23 07:46:44;;;;;;;37.25;24.05;;;16.90;99.90;;;;;;5136542;27;20019;-80
2023/10/23 07:49:10;;;;;;;38.78;23.77;;;16.90;99.90;;;;;;5135733;27;20027;-80
2023/10/23 07:51:35;;;;;;;40.80;23.65;;;17.00;99.90;;;;;;5136934;27;20076;-79
2023/10/23 07:54:03;;;;;;;38.60;21.23;;;17.10;99.90;;;;;;5117791;27;20102;-84
2023/10/23 07:56:29;;;;;;;37.78;21.13;;;17.20;99.90;;;;;;5137047;27;20023;-79
2023/10/23 07:58:54;;;;;;;37.33;19.60;;;17.30;99.90;;;;;;5118676;27;20385;-79
2023/10/23 08:01:20;;;;;;;36.08;17.13;;;17.30;99.90;;;;;;5136322;27;20088;-79
2023/10/23 08:03:46;;;;;;;18.08;10.25;;;17.40;99.90;;;;;;5136991;27;20019;-79
2023/10/23 08:06:12;;;;;;;21.55;11.18;;;17.50;99.90;;;;;;5136937;27;20019;-80
2023/10/23 08:08:39;;;;;;;22.17;12.75;;;17.60;99.90;;;;;;5136159;27;20030;-80
2023/10/23 08:11:07;;;;;;;28.65;15.90;;;17.70;99.90;;;;;;5135748;27;20027;-81
2023/10/23 08:13:34;;;;;;;21.75;10.93;;;17.70;99.90;;;;;;5136716;27;20030;-81
2023/10/23 08:16:00;;;;;;;17.73;10.13;;;17.70;99.90;;;;;;5136587;27;20399;-78
2023/10/23 08:18:26;;;;;;;22.88;12.30;;;17.80;99.90;;;;;;5136664;27;20146;-79
2023/10/23 08:20:51;;;;;;;29.52;15.15;;;17.80;99.90;;;;;;5117719;27;20050;-80
2023/10/23 08:23:18;;;;;;;36.25;15.73;;;;;;;;;;5136804;27;20027;-79
2023/10/23 08:25:44;;;;;;;33.22;17.05;;;18.10;99.90;;;;;;5117895;27;20019;-82
2023/10/23 08:28:10;;;;;;;24.17;15.18;;;;;;;;;;5135764;27;20045;-81
2023/10/23 08:30:36;;;;;;;27.15;15.35;;;18.20;99.90;;;;;;5136460;27;20022;-82
2023/10/23 08:33:03;;;;;;;28.52;14.60;;;18.30;99.90;;;;;;5136247;27;20361;-82
2023/10/23 08:35:29;;;;;;;30.52;14.38;;;18.40;99.90;;;;;;5135569;27;20015;-81
2023/10/23 08:37:55;;;;;;;29.13;14.07;;;18.50;99.90;;;;;;5136328;27;20026;-81
2023/10/23 08:40:22;;;;;;;23.77;14.13;;;18.60;99.90;;;;;;5116961;28;20035;-81
2023/10/23 08:42:48;;;;;;;21.55;12.88;;;18.70;99.90;;;;;;5117285;27;20031;-81
2023/10/23 08:45:18;;;;;;;23.95;13.20;;;18.80;99.90;;;;;;5116736;27;20099;-80
2023/10/23 08:47:44;;;;;;;24.60;12.55;;;18.80;99.90;;;;;;5135422;27;20425;-80
2023/10/23 08:50:12;;;;;;;23.27;10.93;;;18.90;99.90;;;;;;5135139;27;20050;-80
2023/10/23 08:52:53;;;;;;;20.40;9.95;;;19.10;99.90;;;;;;5135021;27;20049;-81
2023/10/23 08:55:20;;;;;;;20.05;9.25;;;19.20;99.90;;;;;;5134895;27;20476;-81
2023/10/23 08:57:53;;;;;;;24.30;10.55;;;19.30;99.90;;;;;;5135572;27;20026;-81
2023/10/23 09:00:22;;;;;;;20.63;9.73;;;19.40;99.90;;;;;;5131696;27;20476;-81
2023/10/23 09:02:51;;;;;;;19.02;10.32;;;19.40;99.90;;;;;;5116196;27;20039;-81
2023/10/23 09:05:18;;;;;;;17.95;10.35;;;19.50;99.90;;;;;;5134623;27;20357;-81
2023/10/23 09:07:45;;;;;;;23.65;10.20;;;19.70;99.90;;;;;;5132149;27;20015;-82
2023/10/23 09:10:11;;;;;;;15.65;8.98;;;19.90;99.90;;;;;;5134662;27;20452;-81
2023/10/23 09:12:39;;;;;;;15.38;9.65;;;19.90;99.90;;;;;;5133898;27;20023;-82
2023/10/23 09:15:20;;;;;;;14.80;8.93;;;20.30;99.90;;;;;;5116466;27;20029;-81
2023/10/23 09:17:49;;;;;;;32.33;16.52;;;20.20;99.90;;;;;;5115877;27;20035;-81
2023/10/23 09:20:23;;;;;;;21.65;9.65;;;20.40;99.90;;;;;;5134655;27;20038;-82
2023/10/23 09:22:51;;;;;;;19.90;10.43;;;20.50;99.90;;;;;;5116807;27;20421;-81
2023/10/23 09:25:19;;;;;;;20.58;10.20;;;;;;;;;;5135350;27;20027;-82
2023/10/23 09:27:45;;;;;;;16.73;8.45;;;;;;;;;;5116946;27;20023;-82
2023/10/23 09:30:13;;;;;;;15.65;9.65;;;;;;;;;;5135714;27;20019;-83
2023/10/23 09:32:40;;;;;;;16.30;10.38;;;;;;;;;;5135160;27;20024;-83
2023/10/23 09:35:08;;;;;;;15.70;9.75;;;;;;;;;;5116183;27;20433;-83
2023/10/23 09:37:36;;;;;;;15.98;9.98;;;;;;;;;;5114959;27;20019;-86
2023/10/23 09:40:09;;;;;;;20.55;8.50;;;;;;;;;;5130985;27;20030;-82
2023/10/23 09:42:36;;;;;;;22.88;11.48;;;;;;;;;;5133726;27;20023;-82
2023/10/23 09:45:04;;;;;;;16.58;10.75;;;;;;;;;;5134752;27;20042;-83
2023/10/23 09:47:30;;;;;;;15.98;9.95;;;;;;;;;;5134696;27;20017;-82
2023/10/23 09:49:58;;;;;;;14.45;9.23;;;;;;;;;;5135094;27;20011;-82
2023/10/23 09:52:25;;;;;;;20.45;9.20;;;;;;;;;;5115815;27;20038;-82
2023/10/23 09:54:54;;;;;;;12.48;8.73;;;;;;;;;;5134854;27;20037;-82
2023/10/23 09:57:22;;;;;;;11.02;8.07;;;;;;;;;;5128357;28;20031;-82
2023/10/23 09:59:53;;;;;;;17.65;8.55;;;;;;;;;;5124999;27;20026;-81
2023/10/23 10:02:23;;;;;;;14.85;9.50;;;;;;;;;;5115335;28;20086;-81
2023/10/23 10:04:49;;;;;;;18.10;9.32;;;;;;;;;;5133602;27;20046;-81
2023/10/23 10:07:18;;;;;;;16.92;10.68;;;;;;;;;;5134064;28;20098;-81
2023/10/23 10:09:44;;;;;;;25.42;13.20;;;;;;;;;;5127988;28;20481;-82
2023/10/23 10:12:11;;;;;;;32.25;15.35;;;;;;;;;;5133762;28;20030;-82
2023/10/23 10:14:38;;;;;;;19.73;10.85;;;;;;;;;;5133333;28;20014;-82
2023/10/23 10:17:04;;;;;;;14.85;9.38;;;;;;;;;;5134057;28;20019;-82
2023/10/23 10:19:31;;;;;;;15.63;9.82;;;;;;;;;;5133376;28;20019;-82
2023/10/23 10:22:04;;;;;;;15.80;10.00;;;;;;;;;;5133349;28;20042;-81
2023/10/23 16:19:57;;;;;;;42.28;18.92;;;19.40;99.90;;;;;;4988364;28;20397;-81
2023/10/23 16:22:23;;;;;;;44.83;18.50;;;19.30;99.90;;;;;;5045640;28;20086;-80
2023/10/23 16:24:48;;;;;;;50.30;24.55;;;19.20;99.90;;;;;;4988081;28;20110;-81
2023/10/23 16:27:14;;;;;;;63.90;30.20;;;19.20;99.90;;;;;;4988115;28;20027;-81
2023/10/23 16:29:40;;;;;;;45.13;21.13;;;19.20;99.90;;;;;;4988431;28;20110;-81
2023/10/23 16:32:06;;;;;;;38.78;16.92;;;19.20;99.90;;;;;;4987363;28;20105;-82
2023/10/23 16:34:32;;;;;;;52.60;17.70;;;19.20;99.90;;;;;;4987022;28;20058;-81
2023/10/23 16:36:57;;;;;;;40.40;18.15;;;19.10;99.90;;;;;;4987002;28;20034;-80
2023/10/23 16:39:25;;;;;;;34.28;15.85;;;19.10;99.90;;;;;;4986600;28;20038;-81
2023/10/23 16:41:51;;;;;;;42.38;19.05;;;19.10;99.90;;;;;;4987132;28;20122;-81
2023/10/23 16:44:17;;;;;;;51.40;20.05;;;19.10;99.90;;;;;;4987852;28;20070;-82
2023/10/23 16:46:43;;;;;;;51.10;21.73;;;19.10;99.90;;;;;;4987548;28;20464;-81
2023/10/23 16:49:08;;;;;;;47.95;19.60;;;19.00;99.90;;;;;;4988171;28;20377;-81
2023/10/23 16:51:34;;;;;;;62.20;24.90;;;19.00;99.90;;;;;;4987674;28;20384;-81
2023/10/23 16:54:00;;;;;;;59.45;23.10;;;19.00;99.90;;;;;;4986658;28;20479;-81
2023/10/23 16:56:26;;;;;;;55.65;23.92;;;19.00;99.90;;;;;;4976107;28;20031;-80
2023/10/23 16:58:52;;;;;;;66.97;26.15;;;18.90;99.90;;;;;;5041412;28;20033;-80
2023/10/23 17:01:18;;;;;;;53.10;24.50;;;18.90;99.90;;;;;;4987467;28;20612;-80
2023/10/23 17:03:45;;;;;;;59.28;24.45;;;18.80;99.90;;;;;;4986047;28;20152;-82
2023/10/23 17:06:11;;;;;;;63.05;25.65;;;18.80;99.90;;;;;;4985466;28;20034;-81
2023/10/23 17:08:37;;;;;;;65.25;26.75;;;18.80;99.90;;;;;;4986982;28;20063;-81
2023/10/23 17:11:07;;;;;;;59.50;24.73;;;18.70;99.90;;;;;;4987120;28;20073;-80
2023/10/23 17:13:32;;;;;;;60.28;24.38;;;18.70;99.90;;;;;;4987087;28;20027;-81
2023/10/23 17:15:59;;;;;;;66.05;25.08;;;18.70;99.90;;;;;;4985804;28;20389;-81
2023/10/23 17:18:25;;;;;;;61.97;23.25;;;18.60;99.90;;;;;;4986786;28;20108;-81
2023/10/23 17:20:51;;;;;;;56.97;23.92;;;18.60;99.90;;;;;;4986411;28;20105;-81
2023/10/23 17:23:18;;;;;;;56.42;24.05;;;18.60;99.90;;;;;;4985327;28;20031;-80
2023/10/23 17:25:45;;;;;;;59.15;25.10;;;18.50;99.90;;;;;;4986772;28;20054;-78
2023/10/23 17:28:12;;;;;;;57.40;24.98;;;18.40;99.90;;;;;;4984956;28;20031;-79
2023/10/23 17:30:38;;;;;;;60.97;26.23;;;18.40;99.90;;;;;;4977426;28;20057;-79
2023/10/23 17:33:06;;;;;;;54.13;25.42;;;18.40;99.90;;;;;;4973742;28;20034;-78
2023/10/23 17:35:36;;;;;;;55.20;23.45;;;18.40;99.90;;;;;;4972081;28;20546;-81
2023/10/23 17:38:03;;;;;;;63.58;27.17;;;18.40;99.90;;;;;;4973759;28;20122;-78
2023/10/23 17:40:29;;;;;;;65.43;30.73;;;18.30;99.90;;;;;;4973853;28;20113;-79
2023/10/23 17:42:55;;;;;;;62.25;28.90;;;18.30;99.90;;;;;;4973440;28;20041;-79
2023/10/23 17:45:21;;;;;;;69.75;28.52;;;18.20;99.90;;;;;;4972238;28;20031;-78
2023/10/23 17:47:47;;;;;;;55.10;26.45;;;18.20;99.90;;;;;;4973418;28;20466;-78
2023/10/23 17:50:13;;;;;;;71.43;29.13;;;18.20;99.90;;;;;;4973102;28;20477;-79
2023/10/23 17:52:43;;;;;;;82.22;42.33;;;18.10;99.90;;;;;;4973418;28;20034;-79
2023/10/23 17:55:09;;;;;;;74.95;34.50;;;18.10;99.90;;;;;;4968645;28;20396;-80
2023/10/23 17:57:35;;;;;;;76.93;36.17;;;18.00;99.90;;;;;;4972104;28;20378;-80
2023/10/23 18:00:02;;;;;;;88.40;37.17;;;18.00;99.90;;;;;;4972351;28;20031;-80
2023/10/23 18:02:28;;;;;;;74.13;33.45;;;17.90;99.90;;;;;;4972660;28;20027;-79
2023/10/23 18:04:54;;;;;;;74.38;32.05;;;17.80;99.90;;;;;;4973167;28;20030;-80
2023/10/23 18:07:20;;;;;;;77.63;38.78;;;17.80;99.90;;;;;;4971940;28;20041;-78
2023/10/23 18:09:46;;;;;;;86.90;42.88;;;17.80;99.90;;;;;;4973100;28;20035;-78
2023/10/23 18:12:11;;;;;;;83.40;35.63;;;17.70;99.90;;;;;;4973423;28;20031;-79
2023/10/23 18:14:37;;;;;;;82.30;39.97;;;17.70;99.90;;;;;;4973423;28;20034;-78
2023/10/23 18:17:03;;;;;;;107.53;54.15;;;17.70;99.90;;;;;;4972953;28;20031;-80
2023/10/23 18:19:29;;;;;;;88.90;42.42;;;17.60;99.90;;;;;;4972984;28;20051;-79
2023/10/23 18:21:55;;;;;;;88.53;41.28;;;17.60;99.90;;;;;;4966053;28;20035;-79
2023/10/23 18:24:21;;;;;;;75.45;39.05;;;17.50;99.90;;;;;;4964841;28;20037;-79
2023/10/23 18:26:47;;;;;;;72.43;36.65;;;17.50;99.90;;;;;;4961779;28;20035;-80
2023/10/23 18:29:13;;;;;;;110.43;55.92;;;17.50;99.90;;;;;;4957775;28;20038;-79
2023/10/23 18:31:39;;;;;;;82.32;39.92;;;17.50;99.90;;;;;;4953249;28;20043;-79